Time;durP1;ratioP1;P1;durP2;ratioP2;P2;SDS_P1;SDS_P2;PMS_P1;PMS_P2;Temp;Humidity;BMP_temperature;BMP_pressure;BME280_temperature;BME280_humidity;BME280_pressure;Samples;Min_cycle;Max_cycle;Signal;HPM_P1;HPM_P2
2023/03/29 06:42:32;;;;;;;5.25;3.88;;;;;;;12.12;44.61;98277.69;6664524;19;20878;-83
2023/03/29 06:51:09;;;;;;;5.68;4.10;;;;;;;8.32;56.65;98285.34;6786320;19;20891;-84
2023/03/29 06:53:35;;;;;;;5.25;4.05;;;;;;;7.98;57.57;98290.66;6331076;19;20922;-84
2023/03/29 06:56:07;;;;;;;4.60;4.00;;;;;;;7.75;58.88;98295.09;6389480;19;19999;-84
2023/03/29 06:58:34;;;;;;;4.72;4.10;;;;;;;7.50;59.33;98294.38;6404781;19;20086;-83
2023/03/29 07:01:02;;;;;;;5.10;4.05;;;;;;;7.30;60.18;98286.41;6434812;19;20368;-83
2023/03/29 07:03:33;;;;;;;5.28;4.35;;;;;;;7.20;60.95;98295.81;7290304;19;20003;-82
2023/03/29 07:06:08;;;;;;;6.05;3.97;;;;;;;7.12;62.07;98293.81;7428503;19;20003;-83
2023/03/29 07:08:42;;;;;;;5.93;4.55;;;;;;;7.01;61.52;98296.41;7423925;19;20804;-82
2023/03/29 07:11:13;;;;;;;5.63;3.90;;;;;;;6.96;62.43;98305.44;7427726;19;20010;-84
2023/03/29 07:13:45;;;;;;;7.35;4.72;;;;;;;6.92;62.02;98310.03;7426997;19;20015;-84
2023/03/29 07:16:12;;;;;;;6.00;4.18;;;;;;;6.88;63.09;98313.78;7420645;19;20468;-83
2023/03/29 07:18:41;;;;;;;7.55;4.43;;;;;;;6.99;63.10;98305.22;7424504;19;20011;-83
2023/03/29 07:21:09;;;;;;;5.90;4.50;;;;;;;7.06;62.54;98307.22;7424636;19;20458;-84
2023/03/29 07:23:36;;;;;;;5.97;4.22;;;;;;;6.94;62.43;98308.97;7425126;19;20040;-84
2023/03/29 07:26:06;;;;;;;6.22;4.60;;;;;;;7.06;62.75;98308.97;7423104;19;20006;-84
2023/03/29 07:28:33;;;;;;;6.57;4.55;;;;;;;7.08;63.07;98323.47;7142849;19;20014;-83
2023/03/29 07:31:10;;;;;;;6.82;4.22;;;;;;;7.16;62.20;98311.72;7371008;19;20494;-84
2023/03/29 07:33:37;;;;;;;7.18;4.60;;;;;;;7.20;63.29;98315.72;7424076;19;20014;-83
2023/03/29 07:36:04;;;;;;;6.80;5.15;;;;;;;7.34;62.42;98302.53;7424306;19;20423;-84
2023/03/29 07:38:31;;;;;;;6.90;4.70;;;;;;;7.48;64.08;98310.06;7426423;19;20021;-86
2023/03/29 07:40:58;;;;;;;6.35;4.30;;;;;;;7.52;62.27;98313.22;7424348;19;20023;-89
2023/03/29 07:43:24;;;;;;;7.65;4.97;;;;;;;7.60;61.87;98315.25;7426529;19;20474;-85
2023/03/29 07:45:51;;;;;;;7.80;4.53;;;;;;;7.67;61.70;98316.41;7424549;19;20074;-84
2023/03/29 07:48:18;;;;;;;7.53;5.00;;;;;;;7.78;62.75;98302.59;7425013;19;20007;-87
2023/03/29 07:50:44;;;;;;;6.45;4.68;;;;;;;7.78;62.60;98306.03;7423580;19;20044;-85
2023/03/29 07:53:11;;;;;;;6.57;4.80;;;;;;;7.83;62.55;98300.47;7422886;19;20018;-85
2023/03/29 07:55:45;;;;;;;6.20;4.50;;;;;;;7.73;60.80;98304.72;7424498;19;20034;-88
2023/03/29 07:58:13;;;;;;;7.03;4.78;;;;;;;7.65;61.24;98306.16;7426182;19;20014;-83
2023/03/29 08:00:40;;;;;;;6.93;4.70;;;;;;;7.43;62.14;98308.78;7411552;19;20014;-85
2023/03/29 08:03:10;;;;;;;6.60;4.72;;;;;;;7.56;63.48;98316.44;7398732;19;20006;-85
2023/03/29 08:05:37;;;;;;;6.15;4.63;;;;;;;7.84;63.96;98315.09;7390747;19;20018;-84
2023/03/29 08:08:05;;;;;;;5.47;4.53;;;;;;;7.87;60.51;98309.66;7398933;19;20065;-84
2023/03/29 08:10:33;;;;;;;6.63;4.57;;;;;;;8.07;60.10;98303.72;7397150;19;20070;-83
2023/03/29 08:13:02;;;;;;;7.95;4.45;;;;;;;8.31;60.22;98304.44;7397229;19;20007;-83
2023/03/29 08:15:28;;;;;;;6.05;4.30;;;;;;;8.55;60.24;98305.09;7349810;19;201194;-82
2023/03/29 08:17:55;;;;;;;7.88;4.45;;;;;;;8.85;60.14;98298.31;7395113;19;20877;-82
2023/03/29 08:20:21;;;;;;;5.95;4.30;;;;;;;8.88;58.38;98303.25;7391042;19;20526;-82
2023/03/29 08:22:47;;;;;;;6.88;4.25;;;;;;;8.66;57.09;98306.78;7395488;19;20011;-82
2023/03/29 08:25:14;;;;;;;6.10;4.68;;;;;;;8.54;58.63;98308.63;7394364;19;20013;-83
2023/03/29 08:27:40;;;;;;;6.25;4.00;;;;;;;8.25;58.60;98301.41;7392851;19;20408;-82
2023/03/29 08:30:08;;;;;;;6.57;4.22;;;;;;;8.43;60.32;98306.06;7394959;19;20010;-83
2023/03/29 08:32:36;;;;;;;6.10;4.60;;;;;;;8.67;59.20;98310.22;7391776;19;20002;-82
2023/03/29 08:35:08;;;;;;;7.43;4.53;;;;;;;8.66;59.33;98301.59;7393663;19;20010;-82
2023/03/29 08:37:36;;;;;;;5.63;4.43;;;;;;;8.95;58.18;98299.19;7392723;19;20006;-82
2023/03/29 08:40:04;;;;;;;4.32;3.78;;;;;;;9.13;57.30;98303.78;7390965;19;20019;-83
2023/03/29 08:42:52;;;;;;;4.85;4.25;;;;;;;9.47;57.01;98306.94;7395057;19;20498;-82
2023/03/29 08:45:45;;;;;;;5.53;4.03;;;;;;;9.50;54.94;98313.66;7391589;19;20003;-82
2023/03/29 08:48:15;;;;;;;5.25;4.00;;;;;;;9.36;56.11;98299.25;7392135;19;20014;-83
2023/03/29 08:51:13;;;;;;;11.15;4.28;;;;;;;9.73;56.68;98306.47;7387434;19;20011;-83
2023/03/29 08:53:57;;;;;;;6.32;4.00;;;;;;;9.93;56.19;98304.72;7396959;19;20021;-84
2023/03/29 08:56:28;;;;;;;5.38;3.97;;;;;;;10.04;54.55;98301.19;7394559;19;20007;-84
2023/03/29 08:58:56;;;;;;;;;;;;;;;10.13;55.27;98308.19;7392669;19;20011;-85
2023/03/29 09:01:27;;;;;;;5.57;4.18;;;;;;;10.40;55.95;98294.53;7392562;19;20305;-84
2023/03/29 09:04:08;;;;;;;6.32;4.35;;;;;;;10.19;53.31;98294.63;7384526;19;20328;-86
2023/03/29 09:06:39;;;;;;;6.32;4.13;;;;;;;10.03;55.85;98302.16;7395850;19;20018;-83
2023/03/29 09:09:16;;;;;;;4.82;3.80;;;;;;;10.23;55.49;98298.59;7393265;19;20006;-81
2023/03/29 09:12:09;;;;;;;5.63;3.90;;;;;;;10.38;55.54;98295.63;7393745;19;20010;-82
2023/03/29 09:15:05;;;;;;;6.90;4.30;;;;;;;10.34;55.06;98299.47;7389275;19;20496;-82
2023/03/29 09:17:57;;;;;;;8.60;4.20;;;;;;;10.52;54.77;98296.97;7391964;19;20027;-82
2023/03/29 09:21:05;;;;;;;5.72;4.20;;;;;;;10.93;53.29;98302.81;7391338;19;20006;-81
2023/03/29 09:24:03;;;;;;;4.85;4.05;;;;;;;11.24;53.48;98292.97;7389709;19;20010;-82
2023/03/29 09:26:51;;;;;;;5.95;4.20;;;;;;;11.51;51.19;98294.78;7390598;19;20006;-81
2023/03/29 09:29:51;;;;;;;6.95;4.25;;;;;;;11.69;51.58;98296.63;7389981;19;20017;-80
2023/03/29 09:32:51;;;;;;;5.53;4.30;;;;;;;11.98;51.78;98289.47;7391367;19;20339;-80
2023/03/29 09:35:21;;;;;;;5.53;3.90;;;;;;;11.96;51.38;98283.59;7392386;19;20784;-82
2023/03/29 09:37:50;;;;;;;6.03;4.10;;;;;;;12.14;51.01;98283.56;7391310;19;20456;-81
2023/03/29 09:40:25;;;;;;;5.10;3.83;;;;;;;12.33;51.17;98292.22;7390781;19;20006;-82
2023/03/29 09:42:54;;;;;;;6.45;3.83;;;;;;;12.42;50.53;98282.69;7391180;19;20007;-83
2023/03/29 09:45:21;;;;;;;4.45;3.33;;;;;;;12.43;48.60;98286.94;7391563;19;20006;-82
2023/03/29 09:48:12;;;;;;;5.93;3.80;;;;;;;12.23;49.55;98292.31;7389715;19;20002;-83
2023/03/29 09:50:50;;;;;;;4.72;3.40;;;;;;;11.76;49.14;98292.47;7391202;19;20007;-83
2023/03/29 09:53:19;;;;;;;7.97;3.65;;;;;;;11.93;51.14;98283.06;7388622;19;20031;-83
2023/03/29 09:55:49;;;;;;;4.32;3.38;;;;;;;11.95;49.02;98281.94;7391370;19;20011;-83
2023/03/29 09:58:21;;;;;;;5.20;3.13;;;;;;;11.75;48.51;98277.78;7391470;19;20017;-83
2023/03/29 10:00:49;;;;;;;3.90;2.90;;;;;;;11.90;47.56;98278.09;7390151;19;20022;-83
2023/03/29 10:03:28;;;;;;;3.15;2.70;;;;;;;11.92;45.85;98278.78;7392613;19;20011;-83
2023/03/29 10:05:59;;;;;;;5.55;2.40;;;;;;;11.59;45.48;98263.56;7382574;19;20033;-85
2023/03/29 10:08:29;;;;;;;3.22;2.40;;;;;;;11.59;45.24;98271.41;7391101;19;20018;-85
2023/03/29 10:10:58;;;;;;;3.10;2.40;;;;;;;11.57;45.42;98278.56;7390841;19;20031;-84
2023/03/29 10:13:32;;;;;;;2.92;2.15;;;;;;;11.52;45.84;98286.00;7390475;19;20010;-84
2023/03/29 10:16:06;;;;;;;3.15;2.45;;;;;;;11.42;45.23;98286.03;7388394;19;20039;-85
2023/03/29 10:18:39;;;;;;;2.30;2.10;;;;;;;11.29;45.75;98284.72;7388479;19;20038;-83
2023/03/29 10:21:06;;;;;;;5.07;2.83;;;;;;;11.38;45.61;98296.91;7389800;19;20017;-83
2023/03/29 10:23:36;;;;;;;3.28;2.28;;;;;;;11.38;46.07;98284.69;7391350;19;20025;-84
2023/03/29 10:26:16;;;;;;;3.90;2.50;;;;;;;11.25;45.87;98281.59;7390084;19;20437;-84
2023/03/29 10:28:43;;;;;;;3.25;2.70;;;;;;;11.25;46.25;98285.00;7389550;19;20010;-84
2023/03/29 10:31:18;;;;;;;4.07;2.55;;;;;;;11.37;45.75;98290.88;7393264;19;20002;-84
2023/03/29 10:33:55;;;;;;;5.25;2.30;;;;;;;11.52;46.11;98285.19;7389572;19;20023;-83
2023/03/29 10:36:25;;;;;;;5.30;2.72;;;;;;;11.49;45.76;98282.88;7389850;19;20021;-85
2023/03/29 10:38:57;;;;;;;3.58;3.17;;;;;;;11.44;46.63;98275.47;7391318;19;20014;-83
2023/03/29 10:41:26;;;;;;;4.05;2.67;;;;;;;11.41;46.20;98275.75;7391619;19;20777;-84
2023/03/29 10:43:53;;;;;;;3.30;2.50;;;;;;;11.48;46.74;98279.44;7391846;19;20340;-84
2023/03/29 10:46:28;;;;;;;3.90;2.95;;;;;;;11.48;46.27;98283.81;7391965;19;20837;-83
2023/03/29 10:48:57;;;;;;;6.07;2.92;;;;;;;11.56;46.36;98279.50;7390566;19;20018;-85
2023/03/29 10:51:29;;;;;;;4.50;2.60;;;;;;;11.60;46.27;98280.03;7389694;19;20007;-82
2023/03/29 10:53:59;;;;;;;2.75;2.20;;;;;;;11.51;45.73;98267.88;7390762;19;20046;-85
2023/03/29 10:56:51;;;;;;;3.95;2.00;;;;;;;11.43;45.71;98261.63;7389547;19;20018;-84
2023/03/29 10:59:48;;;;;;;2.30;2.00;;;;;;;11.42;46.35;98261.75;7388840;19;20017;-83
2023/03/29 11:02:14;;;;;;;5.05;2.17;;;;;;;11.71;46.01;98264.19;7389569;19;20079;-82
2023/03/29 11:05:15;;;;;;;2.35;2.15;;;;;;;11.54;46.32;98265.00;7382028;19;20007;-85
2023/03/29 11:08:38;;;;;;;3.13;2.10;;;;;;;11.81;45.65;98258.94;7384738;19;20102;-83
2023/03/29 11:11:25;;;;;;;2.15;1.90;;;;;;;12.03;46.41;98255.09;7386049;19;20015;-83
2023/03/29 11:14:36;;;;;;;2.72;1.95;;;;;;;12.01;45.33;98262.22;7389054;19;20006;-83
2023/03/29 11:17:52;;;;;;;2.70;2.00;;;;;;;12.11;45.68;98270.81;7387801;19;20703;-84
2023/03/29 11:20:50;;;;;;;3.75;2.38;;;;;;;12.17;45.67;98261.59;7385291;19;20015;-83
2023/03/29 11:23:55;;;;;;;3.50;2.10;;;;;;;12.24;45.26;98260.00;7387786;19;20018;-83
2023/03/29 11:26:40;;;;;;;1.95;1.70;;;;;;;12.22;45.78;98261.97;7386517;19;20019;-85
2023/03/29 11:29:43;;;;;;;3.28;2.10;;;;;;;12.33;46.24;98248.66;7386344;19;20018;-82
2023/03/29 11:32:31;;;;;;;4.03;1.85;;;;;;;12.64;46.50;98258.69;7386992;19;20010;-83
2023/03/29 11:35:28;;;;;;;2.30;1.80;;;;;;;12.63;45.93;98264.06;7388201;19;20079;-86
2023/03/29 11:38:15;;;;;;;2.30;2.08;;;;;;;12.69;45.61;98253.81;7394312;19;20021;-85
2023/03/29 11:40:57;;;;;;;2.65;1.90;;;;;;;12.81;45.53;98256.19;7395455;19;20021;-84
2023/03/29 11:43:53;;;;;;;2.83;1.85;;;;;;;12.77;46.71;98260.09;7395724;19;20044;-84
2023/03/29 11:46:32;;;;;;;2.45;1.55;;;;;;;12.66;44.92;98255.91;7397370;19;20006;-84
2023/03/29 11:49:24;;;;;;;2.78;2.03;;;;;;;12.63;45.48;98258.81;7396907;19;20052;-85
2023/03/29 11:52:05;;;;;;;2.80;2.20;;;;;;;12.53;45.67;98251.91;7394087;19;20026;-85
2023/03/29 11:54:53;;;;;;;;;;;;;;;12.48;45.35;98248.94;7397179;19;20014;-84
2023/03/29 11:57:35;;;;;;;2.33;1.80;;;;;;;12.62;45.15;98250.19;7393656;19;19914;-84
2023/03/29 12:00:18;;;;;;;4.00;2.35;;;;;;;12.52;45.57;98245.03;7391364;19;20006;-83
2023/03/29 12:03:05;;;;;;;5.43;2.20;;;;;;;12.74;45.03;98238.50;7395051;19;20014;-84
2023/03/29 12:05:51;;;;;;;3.05;2.22;;;;;;;13.34;47.44;98229.03;7380894;19;20007;-84
2023/03/29 12:08:32;;;;;;;2.90;2.33;;;;;;;13.40;44.88;98224.94;7391904;19;20027;-83
2023/03/29 12:11:22;;;;;;;3.53;2.08;;;;;;;13.55;44.71;98238.25;7393036;19;20006;-85
2023/03/29 12:13:57;;;;;;;3.58;2.00;;;;;;;13.79;45.31;98235.66;7391522;19;20066;-84
2023/03/29 12:17:01;;;;;;;2.75;1.85;;;;;;;13.41;43.98;98230.03;7392850;19;20010;-85
2023/03/29 12:20:00;;;;;;;5.45;2.20;;;;;;;13.13;45.05;98225.97;7392322;19;20010;-85
2023/03/29 12:22:27;;;;;;;5.18;2.10;;;;;;;13.20;44.71;98240.88;7393901;19;20018;-83
2023/03/29 12:24:56;;;;;;;4.70;2.00;;;;;;;13.17;45.24;98237.75;7392950;19;20592;-84
2023/03/29 12:27:55;;;;;;;1.90;1.70;;;;;;;13.55;45.95;98233.00;7388694;19;20006;-83
2023/03/29 12:30:46;;;;;;;2.30;2.10;;;;;;;13.47;44.46;98239.84;7392531;19;20007;-83
2023/03/29 12:33:44;;;;;;;;;;;;;;;13.60;44.76;98231.53;7392450;19;20367;-84
2023/03/29 12:36:52;;;;;;;3.00;2.15;;;;;;;13.42;45.07;98228.25;7392941;19;19911;-86
2023/03/29 12:39:21;;;;;;;2.33;1.88;;;;;;;13.48;44.51;98217.94;7392345;19;20003;-86
2023/03/29 12:41:50;;;;;;;2.10;1.90;;;;;;;13.58;45.07;98214.38;7390896;19;20347;-83
2023/03/29 12:44:22;;;;;;;5.68;2.15;;;;;;;13.37;44.75;98223.47;7392713;19;20026;-83
2023/03/29 12:46:59;;;;;;;3.60;1.88;;;;;;;13.17;44.77;98230.72;7391016;19;20038;-84
2023/03/29 12:49:36;;;;;;;3.00;1.83;;;;;;;13.27;46.02;98225.38;7392095;19;20026;-83
2023/03/29 12:52:25;;;;;;;4.85;2.00;;;;;;;13.33;45.21;98213.47;7393061;19;20027;-83
2023/03/29 12:54:56;;;;;;;2.63;1.85;;;;;;;13.09;45.52;98213.22;7395110;19;20015;-84
2023/03/29 12:57:38;;;;;;;2.67;2.13;;;;;;;12.91;45.73;98210.66;7393957;19;20732;-85
2023/03/29 13:00:32;;;;;;;2.78;1.70;;;;;;;13.01;45.99;98194.88;7391271;19;20006;-88
2023/03/29 13:03:18;;;;;;;3.00;2.13;;;;;;;13.17;45.72;98203.75;7390927;19;20040;-84
2023/03/29 13:05:45;;;;;;;5.15;2.10;;;;;;;13.57;47.32;98199.66;7387979;19;20011;-82
2023/03/29 13:08:37;;;;;;;4.70;2.28;;;;;;;14.28;49.66;98205.28;7394068;19;20054;-82
2023/03/29 13:11:05;;;;;;;4.80;2.08;;;;;;;14.42;45.21;98199.38;7392271;19;20489;-84
2023/03/29 13:13:41;;;;;;;4.75;2.13;;;;;;;14.23;44.10;98190.88;7393106;19;20354;-83
2023/03/29 13:16:12;;;;;;;5.32;1.92;;;;;;;14.47;46.51;98191.84;7390841;19;20020;-82
2023/03/29 13:19:00;;;;;;;4.40;2.50;;;;;;;14.87;46.30;98177.00;7391587;19;20074;-83
2023/03/29 13:21:49;;;;;;;2.38;1.90;;;;;;;14.48;44.22;98177.75;7391185;19;20010;-83
2023/03/29 13:24:49;;;;;;;4.57;1.70;;;;;;;14.58;46.77;98188.91;7395371;19;20011;-84
2023/03/29 13:27:42;;;;;;;4.38;1.95;;;;;;;15.15;46.10;98182.66;7388108;19;20015;-84
2023/03/29 13:30:52;;;;;;;4.35;2.13;;;;;;;15.28;43.44;98189.97;7391108;19;20014;-83
2023/03/29 13:33:47;;;;;;;2.10;1.70;;;;;;;15.13;47.11;98187.25;7393784;19;20490;-84
2023/03/29 13:36:32;;;;;;;3.38;2.25;;;;;;;15.08;44.83;98184.34;7394831;19;20017;-83
2023/03/29 13:39:05;;;;;;;4.40;1.98;;;;;;;14.52;44.49;98184.28;7390573;19;20338;-82
2023/03/29 13:41:37;;;;;;;3.38;1.67;;;;;;;14.24;46.39;98179.41;7387268;19;20010;-83
2023/03/29 13:44:23;;;;;;;3.30;2.10;;;;;;;14.09;46.43;98175.81;7389898;19;20009;-82
2023/03/29 13:47:13;;;;;;;3.78;1.90;;;;;;;13.98;47.53;98176.16;7392877;19;19998;-82
2023/03/29 13:49:46;;;;;;;4.78;1.80;;;;;;;13.96;47.97;98163.22;7388602;19;20030;-82
2023/03/29 13:52:30;;;;;;;2.28;1.77;;;;;;;14.15;47.53;98177.78;7390802;19;20015;-82
2023/03/29 13:55:27;;;;;;;3.15;1.80;;;;;;;14.28;48.23;98176.47;7391526;19;20010;-83
2023/03/29 13:58:01;;;;;;;3.25;1.65;;;;;;;14.18;48.69;98174.03;7389081;19;20010;-82
2023/03/29 14:00:37;;;;;;;2.75;1.77;;;;;;;13.48;49.40;98183.13;7386973;19;20014;-82
2023/03/29 14:03:13;;;;;;;6.78;1.88;;;;;;;13.51;51.29;98172.34;7392297;19;20014;-82
2023/03/29 14:05:46;;;;;;;2.28;1.75;;;;;;;13.51;50.74;98179.38;7382771;19;20022;-82
2023/03/29 14:08:25;;;;;;;4.00;2.33;;;;;;;13.95;49.74;98173.84;7392108;19;20006;-83
2023/03/29 14:10:54;;;;;;;2.67;2.08;;;;;;;13.67;49.99;98175.00;7391712;19;20357;-85
2023/03/29 14:13:24;;;;;;;3.63;1.98;;;;;;;13.85;50.67;98174.03;7390085;19;20010;-82
2023/03/29 14:16:01;;;;;;;2.77;2.03;;;;;;;13.59;51.02;98171.53;7385586;19;20381;-83
2023/03/29 14:18:36;;;;;;;2.92;2.63;;;;;;;13.26;50.82;98174.88;7388980;19;20027;-80
2023/03/29 14:21:02;;;;;;;3.63;2.70;;;;;;;13.28;51.38;98166.84;7385301;19;20026;-82
2023/03/29 14:23:35;;;;;;;5.18;2.40;;;;;;;13.40;51.62;98167.41;7386494;19;20010;-83
2023/03/29 14:26:19;;;;;;;6.20;2.67;;;;;;;13.44;51.28;98174.78;7390901;19;20005;-83
2023/03/29 14:28:49;;;;;;;3.58;2.80;;;;;;;13.37;51.33;98165.13;7389629;19;20007;-84
2023/03/29 14:31:35;;;;;;;5.03;2.70;;;;;;;13.29;51.09;98165.88;7392109;19;20354;-83
2023/03/29 14:34:06;;;;;;;4.78;2.90;;;;;;;13.45;51.56;98168.56;7385718;19;20006;-82
2023/03/29 14:36:33;;;;;;;3.20;2.30;;;;;;;13.69;51.56;98161.72;7390326;19;20006;-83
2023/03/29 14:39:25;;;;;;;3.60;2.30;;;;;;;14.64;50.13;98166.44;7387858;19;20006;-83
2023/03/29 14:41:55;;;;;;;3.90;2.20;;;;;;;15.23;51.99;98147.69;7390629;19;20346;-81
2023/03/29 14:44:29;;;;;;;3.67;2.33;;;;;;;16.50;46.68;98149.03;7389688;19;20007;-83
2023/03/29 14:46:56;;;;;;;3.28;2.28;;;;;;;15.86;43.36;98135.31;7390079;19;20011;-85
2023/03/29 14:49:23;;;;;;;3.45;2.65;;;;;;;15.06;45.16;98140.88;7386216;19;20010;-83
2023/03/29 14:51:51;;;;;;;3.33;2.20;;;;;;;14.68;46.61;98144.16;7388544;19;20014;-83
2023/03/29 14:54:28;;;;;;;4.78;2.45;;;;;;;14.63;45.72;98135.16;7388776;19;20022;-85
2023/03/29 14:56:55;;;;;;;5.57;2.53;;;;;;;14.97;44.51;98129.63;7390362;19;20010;-84
2023/03/29 14:59:40;;;;;;;2.67;2.22;;;;;;;15.87;43.94;98128.28;7385183;19;20078;-84
2023/03/29 15:02:30;;;;;;;4.90;2.22;;;;;;;16.77;42.26;98123.94;7389719;19;20348;-82
2023/03/29 15:05:02;;;;;;;4.05;2.42;;;;;;;17.04;40.60;98118.03;7380957;19;20011;-83
2023/03/29 15:07:29;;;;;;;4.55;2.60;;;;;;;16.85;40.09;98124.69;7390813;19;20021;-83
2023/03/29 15:09:58;;;;;;;5.03;2.63;;;;;;;16.87;41.61;98115.81;7390359;19;20014;-84
2023/03/29 15:12:29;;;;;;;3.63;2.60;;;;;;;16.56;41.99;98125.47;7397450;19;20018;-83
2023/03/29 15:14:56;;;;;;;5.15;2.95;;;;;;;15.18;43.42;98126.41;7398807;19;20033;-83
2023/03/29 15:17:25;;;;;;;5.28;2.55;;;;;;;14.53;45.95;98122.22;7396730;19;20011;-84
2023/03/29 15:20:10;;;;;;;4.72;2.63;;;;;;;14.19;46.22;98118.06;7393630;19;20006;-83
2023/03/29 15:22:39;;;;;;;4.65;2.70;;;;;;;14.09;47.25;98118.22;7395280;19;20133;-83
2023/03/29 15:25:31;;;;;;;4.22;2.63;;;;;;;14.00;47.32;98109.56;7393790;19;20363;-83
2023/03/29 15:27:58;;;;;;;4.75;2.50;;;;;;;14.06;47.71;98105.44;7397364;19;20047;-83
2023/03/29 15:30:33;;;;;;;3.30;2.30;;;;;;;14.07;47.73;98101.03;7397501;19;20014;-81
2023/03/29 15:33:21;;;;;;;4.50;2.80;;;;;;;13.94;47.38;98104.16;7398110;19;20030;-83
2023/03/29 15:35:51;;;;;;;4.32;2.47;;;;;;;13.81;48.16;98097.63;7397302;19;20006;-82
2023/03/29 15:38:19;;;;;;;2.90;2.60;;;;;;;13.98;48.45;98092.38;7395565;19;20367;-82
2023/03/29 15:40:47;;;;;;;4.63;2.67;;;;;;;14.00;48.26;98093.00;7393962;19;20411;-82
2023/03/29 15:43:13;;;;;;;5.35;2.95;;;;;;;14.08;49.25;98095.63;7397437;19;20015;-82
2023/03/29 15:45:40;;;;;;;3.13;2.63;;;;;;;14.15;50.06;98093.97;7396768;19;19999;-82
2023/03/29 15:48:20;;;;;;;4.85;2.90;;;;;;;14.20;48.43;98089.06;7394094;19;20006;-82
2023/03/29 15:50:47;;;;;;;2.35;2.15;;;;;;;14.17;48.64;98092.03;7396014;19;20010;-81
2023/03/29 15:53:15;;;;;;;4.82;2.70;;;;;;;14.23;49.50;98093.16;7394756;19;20458;-82
2023/03/29 15:55:47;;;;;;;3.17;2.78;;;;;;;14.20;48.83;98085.63;7390151;19;20010;-82
2023/03/29 15:58:24;;;;;;;3.90;2.55;;;;;;;13.97;48.05;98093.38;7393982;19;20014;-81
2023/03/29 16:01:10;;;;;;;3.75;2.60;;;;;;;13.91;48.62;98089.59;7391145;19;20014;-82
2023/03/29 16:03:37;;;;;;;5.75;2.70;;;;;;;13.98;48.26;98087.13;7382919;19;20006;-82
2023/03/29 16:06:11;;;;;;;5.07;2.80;;;;;;;14.12;50.07;98077.78;7393286;19;20014;-82
2023/03/29 16:08:37;;;;;;;5.00;2.80;;;;;;;14.24;50.73;98082.50;7384593;19;20006;-82
2023/03/29 16:11:05;;;;;;;6.15;3.80;;;;;;;14.24;49.56;98072.03;7395195;19;20133;-81
2023/03/29 16:13:31;;;;;;;6.15;3.63;;;;;;;14.23;49.53;98069.59;7347588;19;20474;-81
2023/03/29 16:15:58;;;;;;;5.25;3.05;;;;;;;14.18;49.53;98067.44;7393199;19;20070;-81
2023/03/29 16:18:24;;;;;;;5.40;3.00;;;;;;;14.19;49.96;98071.72;7394943;19;20039;-82
2023/03/29 16:20:50;;;;;;;3.22;2.63;;;;;;;14.18;48.04;98061.41;7390325;19;20010;-83
2023/03/29 16:23:16;;;;;;;3.25;2.53;;;;;;;14.13;49.67;98061.91;7393199;19;20007;-82
2023/03/29 16:25:43;;;;;;;5.38;3.53;;;;;;;14.10;49.19;98056.19;7394379;19;20030;-82
2023/03/29 16:28:09;;;;;;;3.85;2.92;;;;;;;14.06;49.52;98058.31;7395978;19;20006;-83
2023/03/29 16:30:37;;;;;;;4.03;2.67;;;;;;;14.02;50.01;98054.41;7393569;19;20002;-82
2023/03/29 16:33:06;;;;;;;5.32;2.70;;;;;;;14.02;49.96;98059.66;7391877;19;20002;-82
2023/03/29 16:35:38;;;;;;;3.50;2.65;;;;;;;14.02;49.69;98047.38;7393286;19;20017;-82
2023/03/29 16:38:06;;;;;;;4.18;2.95;;;;;;;13.98;49.97;98042.63;7393802;19;20030;-82
2023/03/29 16:40:33;;;;;;;4.60;3.20;;;;;;;13.98;51.83;98051.31;7391748;19;20003;-82
2023/03/29 16:42:59;;;;;;;4.20;3.10;;;;;;;14.00;50.45;98051.97;7396430;19;20010;-83
2023/03/29 16:45:26;;;;;;;3.72;2.95;;;;;;;13.92;50.90;98036.25;7392704;19;20013;-83
2023/03/29 16:47:53;;;;;;;4.82;3.25;;;;;;;13.86;51.13;98047.38;7393716;19;20347;-83
2023/03/29 16:50:20;;;;;;;3.38;2.63;;;;;;;13.88;51.57;98053.28;7394209;19;20018;-84
2023/03/29 16:52:47;;;;;;;3.63;2.95;;;;;;;13.88;50.87;98049.84;7396994;19;20010;-81
2023/03/29 16:55:17;;;;;;;4.07;3.10;;;;;;;13.85;50.46;98048.38;7396717;19;20074;-82
2023/03/29 16:57:46;;;;;;;3.63;2.58;;;;;;;13.72;49.81;98055.91;7396446;19;20010;-82
2023/03/29 17:00:15;;;;;;;6.32;3.13;;;;;;;13.74;50.98;98059.97;7395145;19;20010;-86
2023/03/29 17:02:42;;;;;;;3.88;2.72;;;;;;;13.74;51.78;98059.19;7397543;19;20014;-87
2023/03/29 17:05:11;;;;;;;3.88;2.70;;;;;;;13.66;52.00;98058.22;7387837;19;20014;-85
2023/03/29 17:07:38;;;;;;;3.20;2.50;;;;;;;13.66;52.40;98057.41;7396867;19;20006;-86
2023/03/29 17:10:06;;;;;;;3.72;2.75;;;;;;;13.62;52.62;98049.06;7395327;19;20040;-85
2023/03/29 17:12:33;;;;;;;6.03;3.30;;;;;;;13.62;53.13;98049.06;7396307;19;20015;-84
2023/03/29 17:14:59;;;;;;;4.68;2.92;;;;;;;13.59;53.08;98040.69;7394594;19;20350;-85
2023/03/29 17:17:26;;;;;;;4.03;2.95;;;;;;;13.49;52.10;98044.31;7394379;19;20010;-84
2023/03/29 17:19:55;;;;;;;4.53;3.00;;;;;;;13.40;52.20;98053.16;7395164;19;20021;-86
2023/03/29 17:22:23;;;;;;;4.97;3.25;;;;;;;13.37;52.78;98053.47;7394613;19;20505;-84
2023/03/29 17:24:49;;;;;;;3.55;2.60;;;;;;;13.32;52.66;98052.31;7397987;19;20465;-84
2023/03/29 17:27:22;;;;;;;4.75;3.10;;;;;;;13.32;53.03;98060.97;7398417;19;19999;-86
2023/03/29 17:29:49;;;;;;;5.45;3.33;;;;;;;13.31;53.19;98051.44;7395773;19;20014;-86
2023/03/29 17:32:15;;;;;;;4.85;2.80;;;;;;;13.28;53.62;98043.91;7396749;19;20034;-85
2023/03/29 17:34:41;;;;;;;3.83;3.33;;;;;;;13.24;53.79;98042.63;7393850;19;20011;-82
2023/03/29 17:37:11;;;;;;;6.35;4.10;;;;;;;13.21;53.29;98033.31;7393862;19;20015;-87
2023/03/29 17:40:13;;;;;;;5.80;4.05;;;;;;;13.22;53.38;98034.94;7394473;19;20014;-87
2023/03/29 17:43:02;;;;;;;8.23;3.92;;;;;;;13.21;53.86;98033.31;7396972;19;20006;-87
2023/03/29 17:45:29;;;;;;;8.73;4.40;;;;;;;13.17;53.67;98039.03;7397123;19;20018;-85
2023/03/29 17:51:47;;;;;;;11.60;6.35;;;;;;;13.17;54.36;98031.19;7391495;19;20119;-84
2023/03/29 17:54:15;;;;;;;11.45;6.43;;;;;;;13.15;53.91;98026.13;7398394;19;20014;-87
2023/03/29 17:56:56;;;;;;;15.90;6.13;;;;;;;13.15;53.20;98033.16;7398593;19;20018;-87
2023/03/29 17:59:31;;;;;;;10.82;6.75;;;;;;;13.10;53.72;98028.41;7398044;19;20018;-87
2023/03/29 18:02:01;;;;;;;14.93;6.45;;;;;;;13.08;54.14;98020.72;7398526;19;20015;-87
2023/03/29 18:04:32;;;;;;;10.38;5.20;;;;;;;13.07;53.86;98026.94;7396480;19;20017;-86
2023/03/29 18:07:07;;;;;;;8.32;5.22;;;;;;;13.09;54.06;98029.34;7401105;19;20074;-88
2023/03/29 18:09:50;;;;;;;9.27;6.40;;;;;;;13.11;54.26;98030.84;7395639;19;20009;-88
2023/03/29 18:12:20;;;;;;;10.35;6.22;;;;;;;13.09;54.74;98035.44;7400354;19;20014;-90
2023/03/29 18:15:05;;;;;;;8.20;5.15;;;;;;;13.02;54.96;98039.66;7397713;19;20021;-88
2023/03/29 18:17:37;;;;;;;5.97;4.68;;;;;;;12.97;54.39;98039.34;7397795;19;20030;-86
2023/03/29 18:20:26;;;;;;;;;;;;;;;;;;;;;
2023/03/29 18:23:12;;;;;;;6.45;4.53;;;;;;;12.96;55.19;98044.72;7398891;19;20037;-89
2023/03/29 18:25:39;;;;;;;7.35;4.70;;;;;;;12.95;54.99;98040.47;7398218;19;20065;-92
2023/03/29 18:28:11;;;;;;;6.53;4.55;;;;;;;12.93;55.04;98045.84;7399103;19;20014;-89
2023/03/29 18:30:41;;;;;;;4.90;4.35;;;;;;;12.93;55.32;98043.22;7397007;19;20048;-90
2023/03/29 18:33:10;;;;;;;6.50;4.50;;;;;;;12.90;55.94;98048.75;7403528;19;20015;-90
2023/03/29 18:36:03;;;;;;;8.95;4.07;;;;;;;12.89;55.47;98039.31;7401403;19;20014;-92
2023/03/29 18:38:34;;;;;;;8.57;4.15;;;;;;;12.86;56.53;98039.63;7400017;19;20007;-88
2023/03/29 18:41:20;;;;;;;7.88;4.32;;;;;;;12.80;56.81;98038.47;7399190;19;20039;-92
2023/03/29 18:43:49;;;;;;;8.20;4.17;;;;;;;12.76;56.57;98047.59;7402140;19;20359;-93
2023/03/29 18:46:22;;;;;;;6.28;3.97;;;;;;;12.72;56.89;98049.69;7403253;19;20034;-90
2023/03/29 18:49:12;;;;;;;10.38;5.10;;;;;;;12.66;57.21;98045.13;7397455;19;20010;-86
2023/03/29 18:52:03;;;;;;;6.57;4.72;;;;;;;12.64;57.65;98043.63;7397571;19;20479;-90
2023/03/29 18:54:56;;;;;;;6.68;4.20;;;;;;;12.64;57.65;98036.59;7396990;19;20014;-91
2023/03/29 18:57:28;;;;;;;4.15;3.75;;;;;;;12.61;57.44;98041.34;7401502;19;20422;-90
2023/03/29 19:00:09;;;;;;;6.50;4.13;;;;;;;12.59;57.52;98038.88;7396841;19;20026;-89
2023/03/29 19:02:39;;;;;;;;;;;;;;;12.63;57.97;98042.81;7397752;19;20462;-87
2023/03/29 19:05:27;;;;;;;6.55;4.03;;;;;;;12.63;58.16;98039.38;7394770;19;19927;-90
2023/03/29 19:08:17;;;;;;;5.97;3.63;;;;;;;12.64;57.62;98036.59;7398233;19;20007;-89
2023/03/29 19:10:49;;;;;;;5.78;4.03;;;;;;;12.64;57.81;98031.38;7390550;19;20014;-87